createdAt,value
2023-05-05T00:01:47.603Z,34.18
2023-05-05T00:04:20.951Z,34.25
2023-05-05T00:06:52.576Z,34.51
2023-05-05T00:09:23.082Z,34.44
2023-05-05T00:12:00.714Z,34.23
2023-05-05T00:14:30.547Z,34.34
2023-05-05T00:16:59.327Z,34.55
2023-05-05T00:19:28.200Z,34.37
2023-05-05T00:21:58.173Z,34.41
2023-05-05T00:24:27.011Z,34.09
2023-05-05T00:26:55.751Z,34.46
2023-05-05T00:29:23.882Z,34.02
2023-05-05T00:31:56.716Z,34.20
2023-05-05T00:34:25.446Z,34.04
2023-05-05T00:36:53.584Z,34.20
2023-05-05T00:39:23.621Z,34.03
2023-05-05T00:41:51.964Z,34.00
2023-05-05T00:44:35.965Z,33.78
2023-05-05T00:47:06.647Z,33.66
2023-05-05T00:49:41.472Z,34.33
2023-05-05T00:52:12.627Z,34.33
2023-05-05T00:54:49.091Z,34.34
2023-05-05T00:57:18.503Z,34.99
2023-05-05T00:59:54.204Z,34.87
2023-05-05T01:02:24.715Z,34.60
2023-05-05T01:04:56.230Z,34.34
2023-05-05T01:07:34.592Z,34.64
2023-05-05T01:10:20.734Z,34.74
2023-05-05T01:12:55.467Z,34.93
2023-05-05T01:15:33.332Z,35.26
2023-05-05T01:18:09.033Z,34.98
2023-05-05T01:20:50.417Z,35.24
2023-05-05T01:23:35.973Z,35.30
2023-05-05T01:26:22.866Z,35.46
2023-05-05T01:29:24.087Z,35.55
2023-05-05T01:31:57.476Z,35.58
2023-05-05T01:34:32.576Z,35.91
2023-05-05T01:37:11.594Z,35.85
2023-05-05T01:39:42.815Z,36.12
2023-05-05T01:42:15.174Z,36.34
2023-05-05T01:44:45.409Z,36.53
2023-05-05T01:47:22.429Z,36.69
2023-05-05T01:49:53.660Z,37.02
2023-05-05T01:52:23.947Z,37.32
2023-05-05T01:54:57.653Z,37.43
2023-05-05T01:57:31.408Z,37.39
2023-05-05T02:00:03.380Z,37.63
2023-05-05T02:02:34.982Z,37.97
2023-05-05T02:05:04.782Z,37.84
2023-05-05T02:07:36.545Z,38.07
2023-05-05T02:10:10.174Z,38.29
2023-05-05T02:12:42.220Z,37.71
2023-05-05T02:15:12.628Z,37.98
2023-05-05T02:17:45.172Z,37.82
2023-05-05T02:20:16.612Z,37.90
2023-05-05T02:22:46.176Z,37.57
2023-05-05T02:25:17.900Z,37.98
2023-05-05T02:27:53.933Z,37.98
2023-05-05T02:30:24.630Z,37.99
2023-05-05T02:33:01.436Z,37.83
2023-05-05T02:35:37.118Z,37.44
2023-05-05T02:38:07.860Z,37.29
2023-05-05T02:40:36.985Z,37.42
2023-05-05T02:43:09.391Z,37.46
2023-05-05T02:45:37.813Z,37.09
2023-05-05T02:48:08.374Z,36.76
2023-05-05T02:50:39.488Z,36.50
2023-05-05T02:53:07.985Z,36.49
2023-05-05T02:55:45.671Z,36.42
2023-05-05T02:58:23.888Z,36.48
2023-05-05T03:01:00.988Z,36.58
2023-05-05T03:03:41.939Z,36.44
2023-05-05T03:06:16.504Z,36.45
2023-05-05T03:08:55.493Z,36.35
2023-05-05T03:11:29.770Z,36.14
2023-05-05T03:14:08.904Z,36.22
2023-05-05T03:16:40.563Z,36.28
2023-05-05T03:19:13.277Z,35.99
2023-05-05T03:21:45.240Z,36.04
2023-05-05T03:24:17.305Z,35.78
2023-05-05T03:26:46.874Z,35.72
2023-05-05T03:29:16.892Z,35.62
2023-05-05T03:31:46.238Z,35.76
2023-05-05T03:34:18.471Z,35.98
2023-05-05T03:36:47.408Z,35.77
2023-05-05T03:39:19.005Z,35.76
2023-05-05T03:41:51.301Z,35.44
2023-05-05T03:44:21.027Z,35.46
2023-05-05T03:46:49.611Z,35.56
2023-05-05T03:49:19.480Z,35.38
2023-05-05T03:51:48.994Z,35.45
2023-05-05T03:54:18.592Z,35.42
2023-05-05T03:56:47.365Z,35.21
2023-05-05T03:59:17.384Z,35.28
2023-05-05T04:01:47.081Z,35.19
2023-05-05T04:04:16.231Z,35.45
2023-05-05T04:06:46.329Z,35.10
2023-05-05T04:09:15.523Z,35.36
2023-05-05T04:11:45.717Z,34.99
2023-05-05T04:14:14.454Z,35.03
2023-05-05T04:16:46.801Z,34.89
2023-05-05T04:19:18.939Z,35.03
2023-05-05T04:21:53.401Z,34.96
2023-05-05T04:24:25.247Z,35.25
2023-05-05T04:26:54.237Z,35.35
2023-05-05T04:29:23.735Z,35.70
2023-05-05T04:31:53.965Z,36.31
2023-05-05T04:34:23.487Z,36.68
2023-05-05T04:36:53.606Z,37.19
2023-05-05T04:39:22.766Z,37.31
2023-05-05T04:41:51.850Z,37.17
2023-05-05T04:44:20.701Z,38.11
2023-05-05T04:46:49.683Z,39.67
2023-05-05T04:49:18.276Z,40.84
2023-05-05T04:51:48.362Z,40.91
2023-05-05T04:54:19.012Z,41.40
2023-05-05T04:56:49.939Z,40.88
2023-05-05T04:59:21.308Z,41.28
2023-05-05T05:01:51.028Z,41.22
2023-05-05T05:04:22.863Z,41.60
2023-05-05T05:06:53.882Z,40.86
2023-05-05T05:09:25.734Z,40.89
2023-05-05T05:11:57.927Z,41.12
2023-05-05T05:14:28.179Z,41.22
2023-05-05T05:16:58.364Z,41.20
2023-05-05T05:19:26.609Z,41.48
2023-05-05T05:21:58.393Z,40.89
2023-05-05T05:24:28.115Z,41.18
2023-05-05T05:26:56.589Z,40.64
2023-05-05T05:29:25.289Z,40.50
2023-05-05T05:31:55.976Z,40.53
2023-05-05T05:34:24.825Z,40.16
2023-05-05T05:37:00.690Z,39.75
2023-05-05T05:39:31.700Z,38.34
2023-05-05T05:42:00.693Z,37.53
2023-05-05T05:44:29.194Z,36.50
2023-05-05T05:46:57.926Z,34.22
2023-05-05T05:49:30.363Z,31.95
2023-05-05T05:51:58.927Z,29.66
2023-05-05T05:54:27.317Z,27.80
2023-05-05T05:57:00.408Z,25.94
2023-05-05T05:59:30.734Z,24.02
2023-05-05T06:02:01.643Z,22.81
2023-05-05T06:04:31.787Z,21.95
2023-05-05T06:07:01.803Z,21.10
2023-05-05T06:09:33.030Z,20.69
2023-05-05T06:12:12.297Z,20.41
2023-05-05T06:14:43.187Z,20.69
2023-05-05T06:17:12.672Z,21.07
2023-05-05T06:19:43.054Z,21.18
2023-05-05T06:22:11.836Z,20.39
2023-05-05T06:24:44.100Z,19.74
2023-05-05T06:27:15.825Z,19.80
2023-05-05T06:29:50.179Z,19.70
2023-05-05T06:32:18.571Z,19.77
2023-05-05T06:34:48.985Z,19.73
2023-05-05T06:37:21.699Z,18.40
2023-05-05T06:39:49.870Z,17.94
2023-05-05T06:42:20.055Z,17.15
2023-05-05T06:44:48.571Z,17.37
2023-05-05T06:47:17.970Z,17.41
2023-05-05T06:49:56.945Z,17.34
2023-05-05T06:52:26.657Z,16.55
2023-05-05T06:54:57.749Z,16.13
2023-05-05T06:57:27.556Z,15.54
2023-05-05T06:59:57.118Z,15.13
2023-05-05T07:02:27.465Z,14.34
2023-05-05T07:05:00.902Z,14.07
2023-05-05T07:07:32.576Z,13.51
2023-05-05T07:10:08.698Z,13.87
2023-05-05T07:12:50.882Z,14.46
2023-05-05T07:15:28.654Z,15.13
2023-05-05T07:18:03.494Z,15.05
2023-05-05T07:20:33.789Z,15.13
2023-05-05T07:23:05.570Z,14.79
2023-05-05T07:25:34.095Z,14.69
2023-05-05T07:28:06.526Z,14.62
2023-05-05T07:30:35.155Z,14.65
2023-05-05T07:33:09.110Z,14.71
2023-05-05T07:35:40.626Z,14.12
2023-05-05T07:38:11.160Z,14.31
2023-05-05T07:40:39.850Z,14.70
2023-05-05T07:43:12.416Z,15.44
2023-05-05T07:45:47.950Z,16.33
2023-05-05T07:48:28.655Z,16.93
2023-05-05T07:50:58.808Z,18.08
2023-05-05T07:53:27.235Z,17.85
2023-05-05T07:55:58.288Z,17.97
2023-05-05T07:58:28.294Z,17.87
2023-05-05T08:00:57.385Z,17.90
2023-05-05T08:03:26.977Z,17.65
2023-05-05T08:05:57.353Z,18.01
2023-05-05T08:08:27.606Z,17.94
2023-05-05T08:10:58.428Z,18.05
2023-05-05T08:13:32.039Z,19.23
2023-05-05T08:16:07.076Z,20.20
2023-05-05T08:18:40.898Z,20.96
2023-05-05T08:21:10.697Z,22.18
2023-05-05T08:23:40.159Z,22.91
2023-05-05T08:26:10.715Z,23.45
2023-05-05T08:28:40.918Z,23.48
2023-05-05T08:31:09.593Z,24.01
2023-05-05T08:33:43.395Z,24.32
2023-05-05T08:36:19.746Z,25.43
2023-05-05T08:38:50.157Z,26.23
2023-05-05T08:41:21.512Z,26.12
2023-05-05T08:43:53.406Z,25.90
2023-05-05T08:46:23.540Z,26.42
2023-05-05T08:48:57.966Z,26.04
2023-05-05T08:51:34.047Z,25.81
2023-05-05T08:54:06.440Z,25.73
2023-05-05T08:56:42.737Z,26.06
2023-05-05T08:59:17.438Z,25.90
2023-05-05T09:01:48.958Z,26.59
2023-05-05T09:04:26.933Z,27.02
2023-05-05T09:07:01.130Z,27.16
2023-05-05T09:09:33.608Z,26.80
2023-05-05T09:12:03.647Z,27.14
2023-05-05T09:14:34.754Z,27.16
2023-05-05T09:17:07.424Z,26.61
2023-05-05T09:19:59.227Z,26.38
2023-05-05T09:22:37.121Z,26.15
2023-05-05T09:25:07.259Z,25.86
2023-05-05T09:27:43.528Z,24.91
2023-05-05T09:30:17.744Z,24.84
2023-05-05T09:32:49.688Z,24.19
2023-05-05T09:35:20.398Z,24.22
2023-05-05T09:37:50.104Z,25.00
2023-05-05T09:40:20.541Z,24.36
2023-05-05T09:42:50.176Z,22.92
2023-05-05T09:45:31.315Z,20.93
2023-05-05T09:48:09.239Z,20.33
2023-05-05T09:50:44.825Z,22.00
2023-05-05T09:53:14.258Z,22.78
2023-05-05T09:55:54.575Z,23.66
2023-05-05T09:58:26.285Z,23.28
2023-05-05T10:01:02.212Z,22.29
2023-05-05T10:03:31.680Z,21.23
2023-05-05T10:06:04.869Z,20.51
2023-05-05T10:08:34.760Z,19.38
2023-05-05T10:11:13.117Z,19.30
2023-05-05T10:13:49.595Z,18.94
2023-05-05T10:16:21.085Z,19.58
2023-05-05T10:18:50.429Z,19.97
2023-05-05T10:21:23.032Z,21.00
2023-05-05T10:24:00.934Z,21.84
2023-05-05T10:26:35.330Z,21.64
2023-05-05T10:29:08.793Z,21.46
2023-05-05T10:31:47.898Z,20.81
2023-05-05T10:34:24.875Z,20.26
2023-05-05T10:36:53.732Z,19.76
2023-05-05T10:39:23.984Z,19.83
2023-05-05T10:41:56.941Z,19.34
2023-05-05T10:44:29.488Z,19.50
2023-05-05T10:47:06.440Z,19.48
2023-05-05T10:49:42.881Z,19.43
2023-05-05T10:52:19.670Z,20.25
2023-05-05T10:54:59.680Z,21.23
2023-05-05T10:57:31.098Z,21.27
2023-05-05T10:59:59.961Z,22.19
2023-05-05T11:02:31.769Z,23.10
2023-05-05T11:05:18.413Z,24.01
2023-05-05T11:07:53.811Z,24.30
2023-05-05T11:10:23.485Z,25.39
2023-05-05T11:13:27.566Z,26.09
2023-05-05T11:15:58.157Z,26.73
2023-05-05T11:18:38.606Z,27.01
2023-05-05T11:21:19.808Z,27.05
2023-05-05T11:23:53.982Z,27.42
2023-05-05T11:26:52.529Z,27.75
2023-05-05T11:29:22.167Z,28.17
2023-05-05T11:32:17.542Z,28.43
2023-05-05T11:34:51.778Z,30.10
2023-05-05T11:37:24.500Z,31.09
2023-05-05T11:40:03.851Z,31.86
2023-05-05T11:42:32.080Z,31.54
2023-05-05T11:45:01.498Z,31.50
2023-05-05T11:47:32.145Z,32.10
2023-05-05T11:50:21.742Z,32.23
2023-05-05T11:52:50.735Z,32.08
2023-05-05T11:55:27.345Z,32.48
2023-05-05T11:57:55.516Z,32.88
2023-05-05T12:00:34.610Z,32.54
2023-05-05T12:03:03.228Z,32.69
2023-05-05T12:05:36.297Z,32.32
2023-05-05T12:08:05.355Z,32.29
2023-05-05T12:10:34.427Z,32.58
2023-05-05T12:13:02.557Z,33.18
2023-05-05T12:15:32.328Z,33.84
2023-05-05T12:18:03.029Z,34.31
2023-05-05T12:20:39.446Z,34.87
2023-05-05T12:23:08.656Z,34.16
2023-05-05T12:25:39.332Z,33.91
2023-05-05T12:28:09.795Z,33.92
2023-05-05T12:30:38.619Z,34.35
2023-05-05T12:33:09.642Z,35.17
2023-05-05T12:35:43.428Z,35.43
2023-05-05T12:38:19.724Z,35.41
2023-05-05T12:40:53.290Z,35.96
2023-05-05T12:43:32.805Z,36.01
2023-05-05T12:46:08.353Z,36.07
2023-05-05T12:48:39.242Z,36.14
2023-05-05T12:51:20.349Z,36.06
2023-05-05T12:53:50.471Z,36.52
2023-05-05T12:56:39.403Z,36.40
2023-05-05T12:59:09.053Z,36.48
2023-05-05T13:01:46.181Z,36.43
2023-05-05T13:04:18.268Z,36.58
2023-05-05T13:06:54.465Z,36.60
2023-05-05T13:09:27.480Z,36.34
2023-05-05T13:11:55.902Z,36.51
2023-05-05T13:14:25.158Z,36.62
2023-05-05T13:16:54.745Z,36.82
2023-05-05T13:19:23.963Z,37.10
2023-05-05T13:21:54.007Z,37.16
2023-05-05T13:24:28.658Z,36.26
2023-05-05T13:27:04.646Z,36.03
2023-05-05T13:29:34.557Z,35.95
2023-05-05T13:32:03.341Z,36.51
2023-05-05T13:34:32.764Z,36.63
2023-05-05T13:37:06.999Z,36.94
2023-05-05T13:39:37.242Z,36.53
2023-05-05T13:42:06.291Z,35.99
2023-05-05T13:44:35.733Z,36.36
2023-05-05T13:47:05.323Z,36.14
2023-05-05T13:49:35.794Z,35.82
2023-05-05T13:52:10.112Z,35.72
2023-05-05T13:54:40.045Z,35.81
2023-05-05T13:57:11.468Z,35.90
2023-05-05T13:59:40.954Z,36.67
2023-05-05T14:02:14.626Z,36.80
2023-05-05T14:04:43.112Z,37.34
2023-05-05T14:07:12.729Z,37.67
2023-05-05T14:09:41.798Z,37.92
2023-05-05T14:12:11.508Z,37.98
2023-05-05T14:14:40.126Z,38.14
2023-05-05T14:17:08.578Z,38.67
2023-05-05T14:19:37.465Z,38.59
2023-05-05T14:22:09.744Z,38.38
2023-05-05T14:24:45.912Z,38.51
2023-05-05T14:27:16.232Z,38.02
2023-05-05T14:29:46.553Z,37.89
2023-05-05T14:32:17.270Z,39.03
2023-05-05T14:34:50.165Z,38.81
2023-05-05T14:37:20.558Z,37.76
2023-05-05T14:39:53.529Z,38.12
2023-05-05T14:42:22.642Z,38.23
2023-05-05T14:44:54.144Z,38.54
2023-05-05T14:47:22.976Z,38.88
2023-05-05T14:49:53.189Z,38.65
2023-05-05T14:52:23.973Z,38.37
2023-05-05T14:54:56.313Z,38.50
2023-05-05T14:57:24.544Z,38.68
2023-05-05T14:59:55.286Z,38.75
2023-05-05T15:02:24.155Z,38.56
2023-05-05T15:04:53.298Z,38.01
2023-05-05T15:07:22.978Z,38.10
2023-05-05T15:09:53.190Z,37.97
2023-05-05T15:12:23.308Z,38.08
2023-05-05T15:14:51.678Z,38.49
2023-05-05T15:17:28.666Z,38.45
2023-05-05T15:19:57.135Z,38.50
2023-05-05T15:25:21.889Z,38.49
2023-05-05T15:27:55.171Z,37.83
2023-05-05T15:30:25.882Z,37.65
2023-05-05T15:32:56.764Z,37.44
2023-05-05T15:35:25.844Z,37.79
2023-05-05T15:37:55.641Z,37.55
2023-05-05T15:40:26.075Z,37.38
2023-05-05T15:43:00.689Z,37.77
2023-05-05T15:45:38.893Z,37.37
2023-05-05T15:48:11.032Z,37.00
2023-05-05T15:50:42.848Z,36.16
2023-05-05T15:53:12.668Z,37.11
2023-05-05T15:55:44.634Z,37.21
2023-05-05T15:58:15.220Z,37.63
2023-05-05T16:00:47.215Z,37.57
2023-05-05T16:03:17.047Z,37.87
2023-05-05T16:05:50.634Z,38.20
2023-05-05T16:08:22.211Z,38.72
2023-05-05T16:10:53.339Z,38.46
2023-05-05T16:13:24.600Z,38.88
2023-05-05T16:15:59.130Z,38.48
2023-05-05T16:18:31.277Z,38.46
2023-05-05T16:21:07.383Z,38.44
2023-05-05T16:23:39.164Z,39.14
2023-05-05T16:26:15.119Z,39.01
2023-05-05T16:28:45.491Z,38.32
2023-05-05T16:31:40.733Z,38.25
2023-05-05T16:34:09.023Z,37.75
2023-05-05T16:36:39.154Z,38.01
2023-05-05T16:39:08.866Z,37.82
2023-05-05T16:41:37.061Z,38.33
2023-05-05T16:44:07.113Z,38.67
2023-05-05T16:46:39.509Z,37.67
2023-05-05T16:49:09.212Z,38.38
2023-05-05T16:51:37.852Z,38.65
2023-05-05T16:54:06.585Z,39.52
2023-05-05T16:56:36.702Z,39.95
2023-05-05T16:59:07.402Z,39.98
2023-05-05T17:01:38.051Z,40.19
2023-05-05T17:04:08.472Z,40.36
2023-05-05T17:06:39.810Z,40.95
2023-05-05T17:09:11.375Z,41.03
2023-05-05T17:11:40.224Z,41.13
2023-05-05T17:14:11.930Z,41.47
2023-05-05T17:16:40.558Z,41.76
2023-05-05T17:19:13.686Z,42.45
2023-05-05T17:21:43.497Z,42.80
2023-05-05T17:24:15.232Z,43.06
2023-05-05T17:26:43.454Z,43.43
2023-05-05T17:29:15.693Z,43.24
2023-05-05T17:31:47.661Z,43.49
2023-05-05T17:34:25.266Z,43.56
2023-05-05T17:37:00.774Z,43.70
2023-05-05T17:39:30.105Z,43.79
2023-05-05T17:42:08.866Z,44.32
2023-05-05T17:44:44.077Z,44.77
2023-05-05T17:47:14.776Z,45.00
2023-05-05T17:49:43.696Z,45.02
2023-05-05T17:52:13.091Z,45.53
2023-05-05T17:54:46.706Z,45.51
2023-05-05T17:57:18.331Z,45.80
2023-05-05T17:59:49.708Z,45.97
2023-05-05T18:02:20.365Z,46.21
2023-05-05T18:04:50.772Z,46.57
2023-05-05T18:07:37.761Z,46.80
2023-05-05T18:10:16.848Z,47.13
2023-05-05T18:12:57.795Z,47.26
2023-05-05T18:15:28.092Z,47.44
2023-05-05T18:18:05.162Z,47.81
2023-05-05T18:20:39.846Z,48.14
2023-05-05T18:23:08.633Z,48.40
2023-05-05T18:25:37.181Z,48.45
2023-05-05T18:28:11.327Z,48.46
2023-05-05T18:30:41.786Z,48.70
2023-05-05T18:33:12.292Z,49.30
2023-05-05T18:35:41.014Z,49.12
2023-05-05T18:38:17.712Z,49.21
2023-05-05T18:43:48.885Z,49.77
2023-05-05T18:46:21.052Z,49.41
2023-05-05T18:48:51.172Z,49.60
2023-05-05T18:51:32.374Z,49.81
2023-05-05T18:54:01.335Z,49.34
2023-05-05T18:56:30.585Z,49.41
2023-05-05T18:59:00.550Z,49.77
2023-05-05T19:01:31.157Z,49.72
2023-05-05T19:04:18.761Z,49.84
2023-05-05T19:06:52.531Z,49.88
2023-05-05T19:09:23.774Z,50.13
2023-05-05T19:11:51.739Z,49.78
2023-05-05T19:14:24.123Z,50.66
2023-05-05T19:17:04.322Z,50.76
2023-05-05T19:19:37.253Z,50.73
2023-05-05T19:22:10.108Z,50.72
2023-05-05T19:24:45.632Z,51.18
2023-05-05T19:27:18.177Z,51.32
2023-05-05T19:29:49.384Z,51.13
2023-05-05T19:32:23.896Z,51.38
2023-05-05T19:34:54.861Z,51.60
2023-05-05T19:37:43.626Z,51.77
2023-05-05T19:40:27.178Z,51.99
2023-05-05T19:43:01.676Z,52.32
2023-05-05T19:45:39.152Z,52.08
2023-05-05T19:48:20.468Z,51.95
2023-05-05T19:50:52.167Z,52.59
2023-05-05T19:53:20.285Z,52.70
2023-05-05T19:55:50.432Z,52.11
2023-05-05T19:58:22.368Z,52.26
2023-05-05T20:00:53.034Z,52.58
2023-05-05T20:03:23.601Z,52.64
2023-05-05T20:05:53.926Z,52.48
2023-05-05T20:08:22.278Z,52.41
2023-05-05T20:10:51.466Z,53.11
2023-05-05T20:13:19.629Z,53.21
2023-05-05T20:15:51.490Z,53.00
2023-05-05T20:18:22.364Z,53.20
2023-05-05T20:20:54.239Z,53.41
2023-05-05T20:23:30.502Z,53.68
2023-05-05T20:26:04.714Z,53.72
2023-05-05T20:28:45.338Z,53.65
2023-05-05T20:31:16.608Z,53.68
2023-05-05T20:33:54.846Z,53.74
2023-05-05T20:36:32.296Z,54.19
2023-05-05T20:39:00.409Z,53.97
2023-05-05T20:41:28.788Z,53.88
2023-05-05T20:44:06.291Z,53.93
2023-05-05T20:47:04.504Z,55.10
2023-05-05T20:49:37.761Z,54.60
2023-05-05T20:52:16.320Z,54.49
2023-05-05T20:54:47.681Z,54.51
2023-05-05T20:57:17.300Z,54.20
2023-05-05T20:59:57.067Z,54.98
2023-05-05T21:02:27.221Z,54.21
2023-05-05T21:04:58.538Z,54.53
2023-05-05T21:07:29.265Z,54.62
2023-05-05T21:09:59.325Z,54.79
2023-05-05T21:12:32.408Z,54.88
2023-05-05T21:15:02.639Z,55.32
2023-05-05T21:17:32.402Z,55.13
2023-05-05T21:20:05.241Z,55.32
2023-05-05T21:22:37.172Z,55.20
2023-05-05T21:25:17.443Z,55.91
2023-05-05T21:27:46.101Z,55.72
2023-05-05T21:30:16.184Z,55.95
2023-05-05T21:32:51.957Z,56.24
2023-05-05T21:35:27.786Z,56.18
2023-05-05T21:38:02.317Z,56.06
2023-05-05T21:40:43.778Z,55.89
2023-05-05T21:43:13.105Z,56.03
2023-05-05T21:45:46.105Z,55.84
2023-05-05T21:48:14.455Z,56.38
2023-05-05T21:50:43.199Z,55.95
2023-05-05T21:53:18.331Z,56.41
2023-05-05T21:55:51.796Z,56.05
2023-05-05T21:58:20.532Z,55.95
2023-05-05T22:00:52.437Z,55.66
2023-05-05T22:03:24.509Z,56.16
2023-05-05T22:05:53.992Z,56.69
2023-05-05T22:08:33.963Z,56.47
2023-05-05T22:11:05.052Z,56.33
2023-05-05T22:13:37.845Z,56.68
2023-05-05T22:16:07.334Z,56.66
2023-05-05T22:18:39.012Z,56.74
2023-05-05T22:21:08.343Z,57.07
2023-05-05T22:23:39.431Z,56.73
2023-05-05T22:26:17.789Z,57.35
2023-05-05T22:28:52.483Z,57.09
2023-05-05T22:31:26.948Z,56.69
2023-05-05T22:33:55.428Z,57.69
2023-05-05T22:36:26.331Z,57.20
2023-05-05T22:39:00.750Z,57.36
2023-05-05T22:41:29.495Z,57.71
2023-05-05T22:43:58.450Z,57.42
2023-05-05T22:46:27.418Z,57.80
2023-05-05T22:49:07.117Z,58.36
2023-05-05T22:51:36.719Z,58.59
2023-05-05T22:54:11.397Z,58.79
2023-05-05T22:56:42.061Z,58.31
2023-05-05T22:59:14.281Z,59.32
2023-05-05T23:01:44.134Z,59.14
2023-05-05T23:04:13.881Z,59.50
2023-05-05T23:06:45.164Z,59.56
2023-05-05T23:09:27.459Z,59.17
2023-05-05T23:11:56.696Z,59.18
2023-05-05T23:14:25.001Z,60.15
2023-05-05T23:16:53.588Z,59.71
2023-05-05T23:19:29.132Z,60.02
2023-05-05T23:22:01.034Z,60.27
2023-05-05T23:24:34.943Z,60.59
2023-05-05T23:27:12.046Z,60.46
2023-05-05T23:29:44.715Z,60.13
2023-05-05T23:32:13.183Z,59.93
2023-05-05T23:34:41.571Z,60.51
2023-05-05T23:37:10.125Z,60.29
2023-05-05T23:39:42.063Z,60.38
2023-05-05T23:42:10.478Z,60.69
2023-05-05T23:44:39.069Z,60.77
2023-05-05T23:47:10.612Z,60.63
2023-05-05T23:49:41.772Z,60.40
2023-05-05T23:52:10.863Z,59.92
2023-05-05T23:54:40.375Z,60.50
2023-05-05T23:57:08.718Z,59.96
2023-05-05T23:59:37.493Z,59.12
